Check out our new PWSWeather beta!
PWSweather.com
Personal Weather Stations
Station Observations

YeovilGB

Lat: 50.949, Lon: -2.627

Elevation: 70

Station Type: Vantage Pro

http://www.yeovil-weather.me.uk/

High Low Average
Temperature 46.6°F8.1°C 39.3°F4.1°C 42.9°F6.1°C
Dew Point 41.7°F5.4°C 36.1°F2.3°C 39.0°F3.9°C
Winds 9.2 mph 14.8 kmh Calm Calm 2.0 mph E3.2 kmh E
Wind Gusts 13.8 mph22.2 kmh -- 7.0 mph11.3 kmh
Humidity 90% 83% 86%
Pressure 30.13 in1020.3 mb 30.03 in1016.9 mb -
Precipitation 0.00 in0.0 mm - -
Hour Temp Dew Point Humidity Winds Wind Gusts Pressure Precip Precip Rate Daily Precip Total
12:00 AM 42.1°F5.6°C 38.8°F3.8°C 88% Calm Calm 2.3 mph3.7 kmh 30.13 in1020.3 mb - 0.00 in0.0 mm 0.00 in0.0 mm
12:10 AM 42.0°F5.6°C 38.7°F3.7°C 88% Calm Calm 4.6 mph7.4 kmh 30.13 in1020.3 mb - 0.00 in0.0 mm 0.00 in0.0 mm
12:20 AM 42.0°F5.6°C 38.7°F3.7°C 88% 3.5 mph E5.6 kmh E 5.8 mph9.3 kmh 30.13 in1020.3 mb - 0.00 in0.0 mm 0.00 in0.0 mm
12:30 AM 41.9°F5.5°C 38.6°F3.7°C 88% 1.2 mph E1.9 kmh E 4.6 mph7.4 kmh 30.12 in1020.0 mb - 0.00 in0.0 mm 0.00 in0.0 mm
12:40 AM 41.8°F5.4°C 38.8°F3.8°C 89% 4.6 mph ESE7.4 kmh ESE 5.8 mph9.3 kmh 30.12 in1020.0 mb - 0.00 in0.0 mm 0.00 in0.0 mm
12:50 AM 41.8°F5.4°C 38.5°F3.6°C 88% 1.2 mph SE1.9 kmh SE 6.9 mph11.1 kmh 30.12 in1020.0 mb - 0.00 in0.0 mm 0.00 in0.0 mm
01:00 AM 41.7°F5.4°C 38.4°F3.6°C 88% 3.5 mph E5.6 kmh E 5.8 mph9.3 kmh 30.11 in1019.6 mb - 0.00 in0.0 mm 0.00 in0.0 mm
01:10 AM 41.6°F5.3°C 38.3°F3.5°C 88% Calm Calm 11.5 mph18.5 kmh 30.11 in1019.6 mb - 0.00 in0.0 mm 0.00 in0.0 mm
01:20 AM 41.4°F5.2°C 38.1°F3.4°C 88% 3.5 mph E5.6 kmh E 13.8 mph22.2 kmh 30.11 in1019.6 mb - 0.00 in0.0 mm 0.00 in0.0 mm
01:30 AM 41.2°F5.1°C 37.9°F3.3°C 88% 9.2 mph E14.8 kmh E 11.5 mph18.5 kmh 30.11 in1019.6 mb - 0.00 in0.0 mm 0.00 in0.0 mm
01:40 AM 41.0°F5.0°C 37.8°F3.2°C 88% 2.3 mph E3.7 kmh E 3.5 mph5.6 kmh 30.11 in1019.6 mb - 0.00 in0.0 mm 0.00 in0.0 mm
01:50 AM 40.9°F4.9°C 37.9°F3.3°C 89% 3.5 mph E5.6 kmh E 12.7 mph20.4 kmh 30.11 in1019.6 mb - 0.00 in0.0 mm 0.00 in0.0 mm
02:00 AM 40.8°F4.9°C 37.8°F3.2°C 89% 2.3 mph E3.7 kmh E 8.1 mph13.0 kmh 30.11 in1019.6 mb - 0.00 in0.0 mm 0.00 in0.0 mm
02:10 AM 40.8°F4.9°C 37.8°F3.2°C 89% 3.5 mph E5.6 kmh E 6.9 mph11.1 kmh 30.11 in1019.6 mb - 0.00 in0.0 mm 0.00 in0.0 mm
02:20 AM 40.7°F4.8°C 37.8°F3.2°C 89% 2.3 mph ENE3.7 kmh ENE 3.5 mph5.6 kmh 30.11 in1019.6 mb - 0.00 in0.0 mm 0.00 in0.0 mm
02:30 AM 40.5°F4.7°C 37.5°F3.1°C 89% 2.3 mph E3.7 kmh E 5.8 mph9.3 kmh 30.11 in1019.6 mb - 0.00 in0.0 mm 0.00 in0.0 mm
02:40 AM 40.4°F4.7°C 37.4°F3.0°C 89% 2.3 mph E3.7 kmh E 8.1 mph13.0 kmh 30.11 in1019.6 mb - 0.00 in0.0 mm 0.00 in0.0 mm
02:50 AM 40.3°F4.6°C 37.3°F2.9°C 89% 1.2 mph E1.9 kmh E 1.2 mph1.9 kmh 30.11 in1019.6 mb - 0.00 in0.0 mm 0.00 in0.0 mm
03:00 AM 40.2°F4.6°C 37.2°F2.9°C 89% 1.2 mph E1.9 kmh E 4.6 mph7.4 kmh 30.11 in1019.6 mb - 0.00 in0.0 mm 0.00 in0.0 mm
03:10 AM 40.2°F4.6°C 37.2°F2.9°C 89% 1.2 mph E1.9 kmh E 9.2 mph14.8 kmh 30.11 in1019.6 mb - 0.00 in0.0 mm 0.00 in0.0 mm
03:20 AM 40.2°F4.6°C 37.2°F2.9°C 89% 1.2 mph E1.9 kmh E 3.5 mph5.6 kmh 30.10 in1019.3 mb - 0.00 in0.0 mm 0.00 in0.0 mm
03:30 AM 40.1°F4.5°C 37.4°F3.0°C 90% Calm Calm 6.9 mph11.1 kmh 30.10 in1019.3 mb - 0.00 in0.0 mm 0.00 in0.0 mm
03:40 AM 40.1°F4.5°C 37.1°F2.8°C 89% 2.3 mph ESE3.7 kmh ESE 3.5 mph5.6 kmh 30.10 in1019.3 mb - 0.00 in0.0 mm 0.00 in0.0 mm
03:50 AM 40.0°F4.4°C 37.3°F2.9°C 90% 5.8 mph E9.3 kmh E 8.1 mph13.0 kmh 30.09 in1019.0 mb - 0.00 in0.0 mm 0.00 in0.0 mm
04:00 AM 40.0°F4.4°C 37.3°F2.9°C 90% 3.5 mph E5.6 kmh E 9.2 mph14.8 kmh 30.09 in1019.0 mb - 0.00 in0.0 mm 0.00 in0.0 mm
04:10 AM 39.9°F4.4°C 37.2°F2.9°C 90% Calm Calm -- 30.09 in1019.0 mb - 0.00 in0.0 mm 0.00 in0.0 mm
04:20 AM 39.8°F4.3°C 37.1°F2.8°C 90% 1.2 mph ESE1.9 kmh ESE 5.8 mph9.3 kmh 30.09 in1019.0 mb - 0.00 in0.0 mm 0.00 in0.0 mm
04:30 AM 40.0°F4.4°C 37.3°F2.9°C 90% 2.3 mph SE3.7 kmh SE 6.9 mph11.1 kmh 30.09 in1019.0 mb - 0.00 in0.0 mm 0.00 in0.0 mm
04:40 AM 40.2°F4.6°C 37.5°F3.1°C 90% 2.3 mph E3.7 kmh E 5.8 mph9.3 kmh 30.10 in1019.3 mb - 0.00 in0.0 mm 0.00 in0.0 mm
04:50 AM 40.4°F4.7°C 37.7°F3.2°C 90% 1.2 mph E1.9 kmh E 8.1 mph13.0 kmh 30.09 in1019.0 mb - 0.00 in0.0 mm 0.00 in0.0 mm
05:00 AM 40.6°F4.8°C 37.9°F3.3°C 90% 1.2 mph ESE1.9 kmh ESE 4.6 mph7.4 kmh 30.09 in1019.0 mb - 0.00 in0.0 mm 0.00 in0.0 mm
05:10 AM 40.8°F4.9°C 38.1°F3.4°C 90% 3.5 mph E5.6 kmh E 11.5 mph18.5 kmh 30.09 in1019.0 mb - 0.00 in0.0 mm 0.00 in0.0 mm
05:20 AM 41.1°F5.1°C 38.4°F3.6°C 90% 1.2 mph ESE1.9 kmh ESE 9.2 mph14.8 kmh 30.09 in1019.0 mb - 0.00 in0.0 mm 0.00 in0.0 mm
05:30 AM 41.3°F5.2°C 38.6°F3.7°C 90% 2.3 mph E3.7 kmh E 6.9 mph11.1 kmh 30.09 in1019.0 mb - 0.00 in0.0 mm 0.00 in0.0 mm
05:40 AM 41.5°F5.3°C 38.8°F3.8°C 90% 2.3 mph E3.7 kmh E 11.5 mph18.5 kmh 30.08 in1018.6 mb - 0.00 in0.0 mm 0.00 in0.0 mm
05:50 AM 41.5°F5.3°C 38.8°F3.8°C 90% 1.2 mph SE1.9 kmh SE 5.8 mph9.3 kmh 30.08 in1018.6 mb - 0.00 in0.0 mm 0.00 in0.0 mm
06:00 AM 41.5°F5.3°C 38.8°F3.8°C 90% 1.2 mph ESE1.9 kmh ESE 8.1 mph13.0 kmh 30.08 in1018.6 mb - 0.00 in0.0 mm 0.00 in0.0 mm
06:10 AM 41.5°F5.3°C 38.8°F3.8°C 90% 4.6 mph E7.4 kmh E 6.9 mph11.1 kmh 30.08 in1018.6 mb - 0.00 in0.0 mm 0.00 in0.0 mm
06:20 AM 41.5°F5.3°C 38.8°F3.8°C 90% 2.3 mph E3.7 kmh E 6.9 mph11.1 kmh 30.07 in1018.3 mb - 0.00 in0.0 mm 0.00 in0.0 mm
06:30 AM 41.5°F5.3°C 38.8°F3.8°C 90% 3.5 mph E5.6 kmh E 10.4 mph16.7 kmh 30.07 in1018.3 mb - 0.00 in0.0 mm 0.00 in0.0 mm
06:40 AM 41.6°F5.3°C 38.9°F3.8°C 90% Calm Calm 6.9 mph11.1 kmh 30.07 in1018.3 mb - 0.00 in0.0 mm 0.00 in0.0 mm
06:50 AM 41.7°F5.4°C 38.7°F3.7°C 89% 2.3 mph E3.7 kmh E 10.4 mph16.7 kmh 30.07 in1018.3 mb - 0.00 in0.0 mm 0.00 in0.0 mm
07:00 AM 41.8°F5.4°C 38.8°F3.8°C 89% 4.6 mph E7.4 kmh E 6.9 mph11.1 kmh 30.07 in1018.3 mb - 0.00 in0.0 mm 0.00 in0.0 mm
07:10 AM 41.9°F5.5°C 38.8°F3.8°C 89% 1.2 mph SE1.9 kmh SE 11.5 mph18.5 kmh 30.07 in1018.3 mb - 0.00 in0.0 mm 0.00 in0.0 mm
07:20 AM 41.9°F5.5°C 38.6°F3.7°C 88% 2.3 mph NE3.7 kmh NE 11.5 mph18.5 kmh 30.07 in1018.3 mb - 0.00 in0.0 mm 0.00 in0.0 mm
07:30 AM 41.9°F5.5°C 38.6°F3.7°C 88% 2.3 mph ENE3.7 kmh ENE 8.1 mph13.0 kmh 30.07 in1018.3 mb - 0.00 in0.0 mm 0.00 in0.0 mm
07:40 AM 41.9°F5.5°C 38.6°F3.7°C 88% 2.3 mph E3.7 kmh E 5.8 mph9.3 kmh 30.07 in1018.3 mb - 0.00 in0.0 mm 0.00 in0.0 mm
07:50 AM 42.0°F5.6°C 38.7°F3.7°C 88% 1.2 mph ENE1.9 kmh ENE -- 30.07 in1018.3 mb - 0.00 in0.0 mm 0.00 in0.0 mm
08:00 AM 42.1°F5.6°C 38.8°F3.8°C 88% 1.2 mph ENE1.9 kmh ENE 4.6 mph7.4 kmh 30.07 in1018.3 mb - 0.00 in0.0 mm 0.00 in0.0 mm
08:10 AM 42.3°F5.7°C 38.7°F3.7°C 87% 2.3 mph ENE3.7 kmh ENE 5.8 mph9.3 kmh 30.07 in1018.3 mb - 0.00 in0.0 mm 0.00 in0.0 mm
08:20 AM 42.5°F5.8°C 38.9°F3.8°C 87% 1.2 mph E1.9 kmh E 9.2 mph14.8 kmh 30.07 in1018.3 mb - 0.00 in0.0 mm 0.00 in0.0 mm
08:30 AM 42.6°F5.9°C 39.0°F3.9°C 87% 2.3 mph E3.7 kmh E 11.5 mph18.5 kmh 30.07 in1018.3 mb - 0.00 in0.0 mm 0.00 in0.0 mm
08:40 AM 42.7°F5.9°C 39.1°F3.9°C 87% 3.5 mph E5.6 kmh E 9.2 mph14.8 kmh 30.08 in1018.6 mb - 0.00 in0.0 mm 0.00 in0.0 mm
08:50 AM 42.9°F6.1°C 39.3°F4.1°C 87% 3.5 mph E5.6 kmh E 8.1 mph13.0 kmh 30.07 in1018.3 mb - 0.00 in0.0 mm 0.00 in0.0 mm
09:00 AM 43.3°F6.3°C 39.4°F4.1°C 86% 3.5 mph ENE5.6 kmh ENE 4.6 mph7.4 kmh 30.08 in1018.6 mb - 0.00 in0.0 mm 0.00 in0.0 mm
09:10 AM 43.6°F6.4°C 39.6°F4.2°C 86% 2.3 mph E3.7 kmh E 3.5 mph5.6 kmh 30.08 in1018.6 mb - 0.00 in0.0 mm 0.00 in0.0 mm
09:20 AM 43.8°F6.6°C 39.6°F4.2°C 85% 1.2 mph ENE1.9 kmh ENE 4.6 mph7.4 kmh 30.08 in1018.6 mb - 0.00 in0.0 mm 0.00 in0.0 mm
09:30 AM 43.9°F6.6°C 39.7°F4.3°C 85% 4.6 mph E7.4 kmh E 11.5 mph18.5 kmh 30.08 in1018.6 mb - 0.00 in0.0 mm 0.00 in0.0 mm
09:40 AM 44.1°F6.7°C 39.9°F4.4°C 85% 3.5 mph E5.6 kmh E 6.9 mph11.1 kmh 30.08 in1018.6 mb - 0.00 in0.0 mm 0.00 in0.0 mm
09:50 AM 44.3°F6.8°C 40.0°F4.4°C 85% 3.5 mph ESE5.6 kmh ESE 8.1 mph13.0 kmh 30.09 in1019.0 mb - 0.00 in0.0 mm 0.00 in0.0 mm
10:00 AM 44.3°F6.8°C 40.1°F4.5°C 85% 1.2 mph E1.9 kmh E 11.5 mph18.5 kmh 30.09 in1019.0 mb - 0.00 in0.0 mm 0.00 in0.0 mm
10:10 AM 44.5°F6.9°C 40.6°F4.8°C 86% 2.3 mph ENE3.7 kmh ENE 5.8 mph9.3 kmh 30.08 in1018.6 mb - 0.00 in0.0 mm 0.00 in0.0 mm
10:20 AM 44.8°F7.1°C 40.5°F4.7°C 85% 3.5 mph E5.6 kmh E 9.2 mph14.8 kmh 30.08 in1018.6 mb - 0.00 in0.0 mm 0.00 in0.0 mm
10:30 AM 44.8°F7.1°C 40.6°F4.8°C 85% 2.3 mph NE3.7 kmh NE 6.9 mph11.1 kmh 30.08 in1018.6 mb - 0.00 in0.0 mm 0.00 in0.0 mm
10:40 AM 45.0°F7.2°C 41.1°F5.1°C 86% 2.3 mph E3.7 kmh E 4.6 mph7.4 kmh 30.08 in1018.6 mb - 0.00 in0.0 mm 0.00 in0.0 mm
10:50 AM 45.3°F7.4°C 41.1°F5.1°C 85% 1.2 mph E1.9 kmh E 6.9 mph11.1 kmh 30.08 in1018.6 mb - 0.00 in0.0 mm 0.00 in0.0 mm
11:00 AM 45.6°F7.6°C 41.4°F5.2°C 85% 3.5 mph E5.6 kmh E 9.2 mph14.8 kmh 30.08 in1018.6 mb - 0.00 in0.0 mm 0.00 in0.0 mm
11:10 AM 45.5°F7.5°C 40.9°F4.9°C 84% 3.5 mph ENE5.6 kmh ENE 8.1 mph13.0 kmh 30.07 in1018.3 mb - 0.00 in0.0 mm 0.00 in0.0 mm
11:20 AM 45.5°F7.5°C 41.3°F5.2°C 85% 3.5 mph E5.6 kmh E 5.8 mph9.3 kmh 30.07 in1018.3 mb - 0.00 in0.0 mm 0.00 in0.0 mm
11:30 AM 45.5°F7.5°C 41.3°F5.2°C 85% 2.3 mph E3.7 kmh E 8.1 mph13.0 kmh 30.07 in1018.3 mb - 0.00 in0.0 mm 0.00 in0.0 mm
11:40 AM 45.7°F7.6°C 41.4°F5.2°C 85% 2.3 mph ENE3.7 kmh ENE 8.1 mph13.0 kmh 30.06 in1017.9 mb - 0.00 in0.0 mm 0.00 in0.0 mm
11:50 AM 45.8°F7.7°C 41.2°F5.1°C 84% Calm Calm 3.5 mph5.6 kmh 30.06 in1017.9 mb - 0.00 in0.0 mm 0.00 in0.0 mm
12:00 PM 46.0°F7.8°C 41.4°F5.2°C 84% 2.3 mph ENE3.7 kmh ENE 6.9 mph11.1 kmh 30.06 in1017.9 mb - 0.00 in0.0 mm 0.00 in0.0 mm
12:10 PM 46.1°F7.8°C 41.5°F5.3°C 84% 1.2 mph E1.9 kmh E 3.5 mph5.6 kmh 30.06 in1017.9 mb - 0.00 in0.0 mm 0.00 in0.0 mm
12:20 PM 46.2°F7.9°C 41.6°F5.3°C 84% 3.5 mph ENE5.6 kmh ENE 5.8 mph9.3 kmh 30.06 in1017.9 mb - 0.00 in0.0 mm 0.00 in0.0 mm
12:30 PM 46.2°F7.9°C 41.3°F5.2°C 83% 5.8 mph ENE9.3 kmh ENE 13.8 mph22.2 kmh 30.06 in1017.9 mb - 0.00 in0.0 mm 0.00 in0.0 mm
12:40 PM 46.3°F7.9°C 41.4°F5.2°C 83% 1.2 mph NE1.9 kmh NE 3.5 mph5.6 kmh 30.05 in1017.6 mb - 0.00 in0.0 mm 0.00 in0.0 mm
12:50 PM 46.3°F7.9°C 41.4°F5.2°C 83% 3.5 mph E5.6 kmh E 11.5 mph18.5 kmh 30.06 in1017.9 mb - 0.00 in0.0 mm 0.00 in0.0 mm
01:00 PM 46.3°F7.9°C 41.4°F5.2°C 83% 1.2 mph ENE1.9 kmh ENE 8.1 mph13.0 kmh 30.05 in1017.6 mb - 0.00 in0.0 mm 0.00 in0.0 mm
01:10 PM 46.3°F7.9°C 41.4°F5.2°C 83% 1.2 mph ENE1.9 kmh ENE -- 30.05 in1017.6 mb - 0.00 in0.0 mm 0.00 in0.0 mm
01:20 PM 46.4°F8.0°C 41.5°F5.3°C 83% 2.3 mph ENE3.7 kmh ENE 8.1 mph13.0 kmh 30.05 in1017.6 mb - 0.00 in0.0 mm 0.00 in0.0 mm
01:30 PM 46.4°F8.0°C 41.5°F5.3°C 83% 3.5 mph ENE5.6 kmh ENE 6.9 mph11.1 kmh 30.05 in1017.6 mb - 0.00 in0.0 mm 0.00 in0.0 mm
01:40 PM 46.4°F8.0°C 41.5°F5.3°C 83% 4.6 mph E7.4 kmh E 10.4 mph16.7 kmh 30.04 in1017.3 mb - 0.00 in0.0 mm 0.00 in0.0 mm
01:50 PM 46.5°F8.1°C 41.6°F5.3°C 83% 4.6 mph ENE7.4 kmh ENE 11.5 mph18.5 kmh 30.04 in1017.3 mb - 0.00 in0.0 mm 0.00 in0.0 mm
02:00 PM 46.6°F8.1°C 41.7°F5.4°C 83% 2.3 mph E3.7 kmh E 2.3 mph3.7 kmh 30.04 in1017.3 mb - 0.00 in0.0 mm 0.00 in0.0 mm
02:10 PM 46.6°F8.1°C 41.7°F5.4°C 83% 2.3 mph ENE3.7 kmh ENE 9.2 mph14.8 kmh 30.04 in1017.3 mb - 0.00 in0.0 mm 0.00 in0.0 mm
02:20 PM 46.5°F8.1°C 41.6°F5.3°C 83% 2.3 mph NE3.7 kmh NE 4.6 mph7.4 kmh 30.03 in1016.9 mb - 0.00 in0.0 mm 0.00 in0.0 mm
02:30 PM 46.5°F8.1°C 41.6°F5.3°C 83% 2.3 mph NE3.7 kmh NE 5.8 mph9.3 kmh 30.03 in1016.9 mb - 0.00 in0.0 mm 0.00 in0.0 mm
02:40 PM 46.4°F8.0°C 41.5°F5.3°C 83% 2.3 mph E3.7 kmh E 3.5 mph5.6 kmh 30.03 in1016.9 mb - 0.00 in0.0 mm 0.00 in0.0 mm
02:50 PM 46.3°F7.9°C 41.7°F5.4°C 84% 3.5 mph ENE5.6 kmh ENE 11.5 mph18.5 kmh 30.03 in1016.9 mb - 0.00 in0.0 mm 0.00 in0.0 mm
03:00 PM 46.1°F7.8°C 41.2°F5.1°C 83% 3.5 mph NE5.6 kmh NE 11.5 mph18.5 kmh 30.03 in1016.9 mb - 0.00 in0.0 mm 0.00 in0.0 mm
03:10 PM 46.0°F7.8°C 41.1°F5.1°C 83% 2.3 mph NE3.7 kmh NE 11.5 mph18.5 kmh 30.03 in1016.9 mb - 0.00 in0.0 mm 0.00 in0.0 mm
03:20 PM 45.8°F7.7°C 40.9°F4.9°C 83% 4.6 mph NE7.4 kmh NE 10.4 mph16.7 kmh 30.03 in1016.9 mb - 0.00 in0.0 mm 0.00 in0.0 mm
03:30 PM 45.6°F7.6°C 40.7°F4.8°C 83% 2.3 mph ENE3.7 kmh ENE 2.3 mph3.7 kmh 30.03 in1016.9 mb - 0.00 in0.0 mm 0.00 in0.0 mm
03:40 PM 45.4°F7.4°C 40.5°F4.7°C 83% 1.2 mph NE1.9 kmh NE 5.8 mph9.3 kmh 30.04 in1017.3 mb - 0.00 in0.0 mm 0.00 in0.0 mm
03:50 PM 45.2°F7.3°C 40.3°F4.6°C 83% 3.5 mph NE5.6 kmh NE 9.2 mph14.8 kmh 30.04 in1017.3 mb - 0.00 in0.0 mm 0.00 in0.0 mm
04:00 PM 45.0°F7.2°C 40.5°F4.7°C 84% 3.5 mph NE5.6 kmh NE 9.2 mph14.8 kmh 30.04 in1017.3 mb - 0.00 in0.0 mm 0.00 in0.0 mm
04:10 PM 44.9°F7.2°C 40.3°F4.6°C 84% 2.3 mph E3.7 kmh E 8.1 mph13.0 kmh 30.04 in1017.3 mb - 0.00 in0.0 mm 0.00 in0.0 mm
04:20 PM 44.7°F7.1°C 40.1°F4.5°C 84% 3.5 mph NE5.6 kmh NE 9.2 mph14.8 kmh 30.04 in1017.3 mb - 0.00 in0.0 mm 0.00 in0.0 mm
04:30 PM 44.5°F6.9°C 40.0°F4.4°C 84% 2.3 mph ENE3.7 kmh ENE 6.9 mph11.1 kmh 30.04 in1017.3 mb - 0.00 in0.0 mm 0.00 in0.0 mm
04:40 PM 44.3°F6.8°C 39.5°F4.2°C 83% 3.5 mph ENE5.6 kmh ENE 5.8 mph9.3 kmh 30.03 in1016.9 mb - 0.00 in0.0 mm 0.00 in0.0 mm
04:50 PM 44.2°F6.8°C 39.4°F4.1°C 83% 3.5 mph ENE5.6 kmh ENE 13.8 mph22.2 kmh 30.04 in1017.3 mb - 0.00 in0.0 mm 0.00 in0.0 mm
05:00 PM 44.1°F6.7°C 39.3°F4.1°C 83% 1.2 mph NE1.9 kmh NE 4.6 mph7.4 kmh 30.04 in1017.3 mb - 0.00 in0.0 mm 0.00 in0.0 mm
05:10 PM 44.0°F6.7°C 39.2°F4.0°C 83% 1.2 mph E1.9 kmh E 2.3 mph3.7 kmh 30.04 in1017.3 mb - 0.00 in0.0 mm 0.00 in0.0 mm
05:20 PM 43.8°F6.6°C 39.0°F3.9°C 83% 1.2 mph ENE1.9 kmh ENE 4.6 mph7.4 kmh 30.05 in1017.6 mb - 0.00 in0.0 mm 0.00 in0.0 mm
05:30 PM 43.7°F6.5°C 38.9°F3.8°C 83% 2.3 mph ENE3.7 kmh ENE 4.6 mph7.4 kmh 30.06 in1017.9 mb - 0.00 in0.0 mm 0.00 in0.0 mm
05:40 PM 43.6°F6.4°C 39.1°F3.9°C 84% 2.3 mph ENE3.7 kmh ENE 8.1 mph13.0 kmh 30.06 in1017.9 mb - 0.00 in0.0 mm 0.00 in0.0 mm
05:50 PM 43.6°F6.4°C 39.1°F3.9°C 84% Calm Calm 4.6 mph7.4 kmh 30.07 in1018.3 mb - 0.00 in0.0 mm 0.00 in0.0 mm
06:00 PM 43.6°F6.4°C 39.1°F3.9°C 84% Calm Calm 5.8 mph9.3 kmh 30.07 in1018.3 mb - 0.00 in0.0 mm 0.00 in0.0 mm
06:10 PM 43.6°F6.4°C 39.1°F3.9°C 84% 1.2 mph NE1.9 kmh NE 4.6 mph7.4 kmh 30.07 in1018.3 mb - 0.00 in0.0 mm 0.00 in0.0 mm
06:20 PM 43.4°F6.3°C 38.9°F3.8°C 84% 1.2 mph ENE1.9 kmh ENE 2.3 mph3.7 kmh 30.07 in1018.3 mb - 0.00 in0.0 mm 0.00 in0.0 mm
06:30 PM 43.3°F6.3°C 38.5°F3.6°C 83% Calm Calm 5.8 mph9.3 kmh 30.07 in1018.3 mb - 0.00 in0.0 mm 0.00 in0.0 mm
06:40 PM 43.1°F6.2°C 38.6°F3.7°C 84% 1.2 mph NE1.9 kmh NE 4.6 mph7.4 kmh 30.07 in1018.3 mb - 0.00 in0.0 mm 0.00 in0.0 mm
06:50 PM 42.8°F6.0°C 38.3°F3.5°C 84% 2.3 mph NE3.7 kmh NE 8.1 mph13.0 kmh 30.06 in1017.9 mb - 0.00 in0.0 mm 0.00 in0.0 mm
07:00 PM 42.7°F5.9°C 38.5°F3.6°C 85% 2.3 mph NNE3.7 kmh NNE 8.1 mph13.0 kmh 30.06 in1017.9 mb - 0.00 in0.0 mm 0.00 in0.0 mm
07:10 PM 42.5°F5.8°C 38.3°F3.5°C 85% 3.5 mph NE5.6 kmh NE 5.8 mph9.3 kmh 30.06 in1017.9 mb - 0.00 in0.0 mm 0.00 in0.0 mm
07:20 PM 42.4°F5.8°C 38.2°F3.4°C 85% Calm Calm 4.6 mph7.4 kmh 30.07 in1018.3 mb - 0.00 in0.0 mm 0.00 in0.0 mm
07:30 PM 42.2°F5.7°C 38.3°F3.5°C 86% 2.3 mph NE3.7 kmh NE 8.1 mph13.0 kmh 30.07 in1018.3 mb - 0.00 in0.0 mm 0.00 in0.0 mm
07:40 PM 42.1°F5.6°C 38.2°F3.4°C 86% 1.2 mph NE1.9 kmh NE 9.2 mph14.8 kmh 30.08 in1018.6 mb - 0.00 in0.0 mm 0.00 in0.0 mm
07:50 PM 42.1°F5.6°C 38.2°F3.4°C 86% 1.2 mph NE1.9 kmh NE 5.8 mph9.3 kmh 30.08 in1018.6 mb - 0.00 in0.0 mm 0.00 in0.0 mm
08:00 PM 42.0°F5.6°C 38.1°F3.4°C 86% 3.5 mph NE5.6 kmh NE 8.1 mph13.0 kmh 30.08 in1018.6 mb - 0.00 in0.0 mm 0.00 in0.0 mm
08:10 PM 42.1°F5.6°C 37.9°F3.3°C 85% 1.2 mph E1.9 kmh E 9.2 mph14.8 kmh 30.09 in1019.0 mb - 0.00 in0.0 mm 0.00 in0.0 mm
08:20 PM 42.1°F5.6°C 37.9°F3.3°C 85% 2.3 mph NE3.7 kmh NE 11.5 mph18.5 kmh 30.09 in1019.0 mb - 0.00 in0.0 mm 0.00 in0.0 mm
08:30 PM 42.0°F5.6°C 37.8°F3.2°C 85% 1.2 mph NE1.9 kmh NE 6.9 mph11.1 kmh 30.09 in1019.0 mb - 0.00 in0.0 mm 0.00 in0.0 mm
08:40 PM 41.9°F5.5°C 37.7°F3.2°C 85% 2.3 mph NE3.7 kmh NE 4.6 mph7.4 kmh 30.09 in1019.0 mb - 0.00 in0.0 mm 0.00 in0.0 mm
08:50 PM 41.7°F5.4°C 37.8°F3.2°C 86% 2.3 mph NE3.7 kmh NE 8.1 mph13.0 kmh 30.09 in1019.0 mb - 0.00 in0.0 mm 0.00 in0.0 mm
09:00 PM 41.7°F5.4°C 37.8°F3.2°C 86% 1.2 mph E1.9 kmh E 4.6 mph7.4 kmh 30.09 in1019.0 mb - 0.00 in0.0 mm 0.00 in0.0 mm
09:10 PM 41.3°F5.2°C 37.4°F3.0°C 86% 1.2 mph NE1.9 kmh NE 5.8 mph9.3 kmh 30.09 in1019.0 mb - 0.00 in0.0 mm 0.00 in0.0 mm
09:20 PM 41.2°F5.1°C 37.3°F2.9°C 86% 2.3 mph NE3.7 kmh NE 5.8 mph9.3 kmh 30.09 in1019.0 mb - 0.00 in0.0 mm 0.00 in0.0 mm
09:30 PM 41.0°F5.0°C 37.4°F3.0°C 87% 3.5 mph NE5.6 kmh NE 8.1 mph13.0 kmh 30.10 in1019.3 mb - 0.00 in0.0 mm 0.00 in0.0 mm
09:40 PM 40.9°F4.9°C 37.3°F2.9°C 87% 1.2 mph NE1.9 kmh NE 2.3 mph3.7 kmh 30.09 in1019.0 mb - 0.00 in0.0 mm 0.00 in0.0 mm
09:50 PM 40.8°F4.9°C 37.2°F2.9°C 87% 2.3 mph NNE3.7 kmh NNE 8.1 mph13.0 kmh 30.08 in1018.6 mb - 0.00 in0.0 mm 0.00 in0.0 mm
10:00 PM 40.9°F4.9°C 37.3°F2.9°C 87% 2.3 mph NNE3.7 kmh NNE 5.8 mph9.3 kmh 30.09 in1019.0 mb - 0.00 in0.0 mm 0.00 in0.0 mm
10:10 PM 40.9°F4.9°C 37.3°F2.9°C 87% 1.2 mph NNE1.9 kmh NNE 6.9 mph11.1 kmh 30.10 in1019.3 mb - 0.00 in0.0 mm 0.00 in0.0 mm
10:20 PM 40.9°F4.9°C 37.3°F2.9°C 87% 1.2 mph NE1.9 kmh NE 6.9 mph11.1 kmh 30.10 in1019.3 mb - 0.00 in0.0 mm 0.00 in0.0 mm
10:30 PM 40.9°F4.9°C 37.3°F2.9°C 87% Calm Calm 2.3 mph3.7 kmh 30.10 in1019.3 mb - 0.00 in0.0 mm 0.00 in0.0 mm
10:40 PM 41.1°F5.1°C 37.2°F2.9°C 86% 1.2 mph NNE1.9 kmh NNE 5.8 mph9.3 kmh 30.11 in1019.6 mb - 0.00 in0.0 mm 0.00 in0.0 mm
10:50 PM 41.2°F5.1°C 37.3°F2.9°C 86% 1.2 mph N1.9 kmh N 3.5 mph5.6 kmh 30.11 in1019.6 mb - 0.00 in0.0 mm 0.00 in0.0 mm
11:00 PM 41.1°F5.1°C 37.3°F2.9°C 86% 1.2 mph NNE1.9 kmh NNE 6.9 mph11.1 kmh 30.11 in1019.6 mb - 0.00 in0.0 mm 0.00 in0.0 mm
11:10 PM 41.1°F5.1°C 37.2°F2.9°C 86% 1.2 mph N1.9 kmh N 6.9 mph11.1 kmh 30.11 in1019.6 mb - 0.00 in0.0 mm 0.00 in0.0 mm
11:20 PM 41.0°F5.0°C 37.1°F2.8°C 86% 2.3 mph NE3.7 kmh NE 5.8 mph9.3 kmh 30.11 in1019.6 mb - 0.00 in0.0 mm 0.00 in0.0 mm
11:30 PM 40.8°F4.9°C 36.9°F2.7°C 86% Calm Calm -- 30.11 in1019.6 mb - 0.00 in0.0 mm 0.00 in0.0 mm
11:40 PM 40.0°F4.4°C 36.5°F2.5°C 87% 1.2 mph N1.9 kmh N 2.3 mph3.7 kmh 30.11 in1019.6 mb - 0.00 in0.0 mm 0.00 in0.0 mm
11:50 PM 39.3°F4.1°C 36.1°F2.3°C 88% Calm Calm -- 30.11 in1019.6 mb - 0.00 in0.0 mm 0.00 in0.0 mm